Oneida, IL (61467)

10:32 AM CST del 21 Febbraio 2017 (GMT -0600)
Northwest Oneida | | Change Station

Alt. 814 ft 41.08 °N, 90.23 °W | Updated 16 seconds ago

Molto nuvoloso
Molto nuvoloso
55.0 °F
Sembra 55.0 °F
N
0.0
Vento Variabile Vento da ESE
Gusts 0.0 mph

Oggi
Massima -- | Minima -- °F
--% Possibilità di precip.
Ieri
Massima -- | Minima -- °F
Precip. -- in
Pressione 29.98 in
Visibilità 10.0 miglia
Nuvole Nubi sparse 600 ft
Coperto 1600 ft
Punto di rugiada 50 °F
Umidità 82%
Piovosità 0.05 in
Spessore del manto nevoso Non disponibile.
6:46 AM 5:42 PM
Luna calante, 24% visible
METAR KGBG 211615Z AUTO 00000KT 10SM SCT006 OVC016 12/10 A2998 RMK AO2 T01200103
Pressione 29.98 in
Visibilità 10.0 miglia
Nuvole Nubi sparse 600 ft
Coperto 1600 ft
Punto di rugiada 50 °F
Umidità 82%
Piovosità 0.05 in
Spessore del manto nevoso Non disponibile.
6:46 AM 5:42 PM
Luna calante, 24% visible
METAR KGBG 211615Z AUTO 00000KT 10SM SCT006 OVC016 12/10 A2998 RMK AO2 T01200103

Get Your Daily Forecast Email!

Thanks for signing up!

Be on the lookout for a verification email in your inbox.

You'll start receiving the daily forecast at 8 AM.

×

10-Day Weather Forecast

Almanac

Astronomia

Feb. 21, 2017 Alba Tramonto
Ora attuale
Crepuscolo civile
Crepuscolo nautico
Crepuscolo astronomico
Luna
Estensione della luce visibile
Lunghezza del giorno
Tomorrow will be .
, % of the Moon is Illuminated

Gli estremi di oggi

State Highs State Lows

Community

WunderPhotos

Upload Photos

1,962,540 foto caricate!

WunderBlog® & News

Nearby

Qualità dell'aria

  Qualità dell'aria Indice AQ Inquinante
Not available.

Profondità neve

Stazione Profondità Altitudine

Attività sismica

Città  Distanza Mag. Data & Ora
Minimo Magnitudo Mostrato è 2.5.

Temperature delle acque costiere

Località Temperatura

Stations

Stazioni meteo nelle vicinanze

Ubicazione della stazione Temp. Raffreddamento del vento Punto di rugiada Umidità Vento Precip. Alt. Aggiornato Tipo
                   

Watches & Warnings

There are currently no watches in effect.